Butts AAF (Fort Carson) Air Field
KFCS : now visible

Airfield :











YOU CAN JOIN US ON...

 
LOGIN :

Register | Disclaimer

   EN    FR    IT 

 









Legend :    VFR   Marginal VFR   IFR   Intensive IFR   Very Intensive IFR
Visi :
Ceiling :
>= 8 km
>= 3000ft
5 to 8 km
1000 to 3000 ft
1500m to 5 km
500 to 1000 ft
800 to 1500m
200 to 500 ft
< 800m
< 200 ft
Symbols :   Thunderstorms  Fog  Heavy snow  Heavy precipitations  Wind > 20 kt






- Airport Elevation : 5838 ft


KFCS - Butts AAF (Fort Carson) Air Field

CURRENT METAR :
  • 101758Z AUTO 15007KT 10SM CLR 13/M10 A2990 RMK AO2 SLP130 T01331099 10133 21044 58015 $

EXPIRED METARs :
  • 101658Z AUTO 07004KT 10SM CLR 10/M09 A2993 RMK AO2 SLP146 T00981093 $
  • 101558Z AUTO 07004KT 10SM CLR 07/M09 A2995 RMK AO2 SLP165 T00721088 $

TAF TAF KFCS
Valid from the 10 at 13:00 until the 11 at 19:00 UTC


101300Z 1013/1119 36006KT 9999 SKC QNH2975INS
BECMG 1023/1024 14006KT 9999 SKC QNH2976INS
BECMG 1102/1103 36006KT 9999 SKC QNH2973INS
BECMG 1116/1117 36012G18KT 9999 SKC QNH2960INS TX20/1023Z TNM05/1111Z
KZDV FIR / North America



MET'MAP, your aeronautical weather chart ! - Copyright ORBIFLY December 2007 - Disclaimer

ORBIFLY MET'MAP TEAM :

Programming & Development : Alexandra Zaïnal
Concept & original design : Baudouin d'Aumeries
Assistance for programming : Marc-Olivier Méhu
Technical & hardware support : Manuel Goepfert

Contact : metmap@orbifly.com




SOURCES & CREDITS :

   NOAA       Earth
Advisory